ADDS TAF Data INFO
IDs: Format: Raw Decoded Include METARs

Data at: 1637 UTC 27 Jul 2017

TAF ETSI 271322Z 2714/2723 25006KT 9999 NSW FEW012 BKN030 BKN130
  TEMPO 2714/2723 27008KT 7000 -DZRA FEW010 BKN015 OVC030